Aeroporto :
LOGIN :

Iscrizione | Disclaimer

   EN    FR    IT 

 










Sommario :    VFR   VFR Marginale   IFR   IFR Intensivo   IFR Molto Intensivo
Visibilità : 
Base nubi : 
>= 8 km
>= 3000ft
5 / 8 km
1000 / 3000 ft
1500m / 5 km
500 / 1000 ft
800 / 1500m
200 / 500 ft
< 800m
< 200 ft
Simboli :   Temporali  Nebbia  Neve Forte  Precipitazioni Forti  Vento > 20 kt
SIGMETs :   Varie  Temporali  Ghiacco  Turbolenza  Onda orograficha  Ceneri Vulcaniche






- Altitudine del aeroporto : 56 ft
- Codice IATA : BZR


LFMU - Beziers / Vias

ULTIMO METAR :
  • 061030Z AUTO 25004KT 220V280 CAVOK 11/05 Q1024 NOSIG

METARs OBSOLETI :
  • 061000Z AUTO 23004KT 200V260 CAVOK 11/05 Q1024 NOSIG
  • 060930Z AUTO VRB02KT CAVOK 10/05 Q1024 NOSIG
  • 060900Z AUTO 00000KT CAVOK 09/05 Q1024 NOSIG
  • 060830Z AUTO 00000KT CAVOK 08/06 Q1024 NOSIG
  • 060800Z AUTO 30004KT CAVOK 06/04 Q1024 NOSIG

TAF TAF LFMU
Valido dal 06 a 09 ore il 07 a 09 ore UTC


060800Z 0609/0709 VRB05KT CAVOK
TEMPO 0612/0615 18010KT
PROB30
TEMPO 0621/0706 4000 BR
BECMG 0706/0709 NSW
ATIS : +33 4 67 90 88 88



MetMap, La meteo Aeronautica in un colpo d'occhio ! - Copyright ORBIFLY Dicembre 2007 - Disclaimer

ORBIFLY MET'MAP TEAM :

Programmazione e sviluppo : Alexandra Zaïnal
Concezione : Baudouin d'Aumeries
Aiuto per la programmazione : Marc-Olivier Méhu
Supporto tecnico e logistico : Manuel Goepfert
Aiuto per la traduzione : Arnaldo La Scala

Contatto : metmap@orbifly.com




FONTI E CREDITI :

   NOAA